Time;durP1;ratioP1;P1;durP2;ratioP2;P2;SDS_P1;SDS_P2;PMS_P1;PMS_P2;Temp;Humidity;BMP_temperature;BMP_pressure;BME280_temperature;BME280_humidity;BME280_pressure;Samples;Min_cycle;Max_cycle;Signal;HPM_P1;HPM_P2
2022/08/29 00:00:17;;;;;;;7.77;6.97;;;19.70;99.90;;;;;;6138811;23;21629;-68
2022/08/29 00:02:45;;;;;;;7.60;7.00;;;19.70;99.90;;;;;;6140693;23;20515;-68
2022/08/29 00:05:12;;;;;;;7.73;7.13;;;19.70;99.90;;;;;;6133684;23;20482;-68
2022/08/29 00:07:41;;;;;;;7.10;6.50;;;19.60;99.90;;;;;;6140020;23;20982;-68
2022/08/29 00:10:09;;;;;;;7.50;6.90;;;19.60;99.90;;;;;;6133039;23;20463;-68
2022/08/29 00:12:36;;;;;;;7.73;7.03;;;19.60;99.90;;;;;;6138391;23;20527;-68
2022/08/29 00:15:05;;;;;;;7.90;7.20;;;19.50;99.90;;;;;;6128863;23;20580;-68
2022/08/29 00:17:32;;;;;;;8.43;7.60;;;19.50;99.90;;;;;;6126767;23;20459;-67
2022/08/29 00:19:59;;;;;;;8.13;7.43;;;19.30;99.90;;;;;;6125746;23;20444;-68
2022/08/29 00:22:26;;;;;;;7.70;7.00;;;19.20;99.90;;;;;;6143850;23;20519;-68
2022/08/29 00:24:55;;;;;;;8.70;8.00;;;19.20;99.90;;;;;;6136293;23;20433;-68
2022/08/29 00:27:22;;;;;;;7.70;7.10;;;19.10;99.90;;;;;;6141989;23;20868;-68
2022/08/29 00:29:49;;;;;;;7.87;7.17;;;19.00;99.90;;;;;;6138255;23;20524;-68
2022/08/29 00:32:16;;;;;;;7.70;7.03;;;19.00;99.90;;;;;;6130624;23;20432;-67
2022/08/29 00:34:43;;;;;;;8.40;7.80;;;18.90;99.90;;;;;;6137842;23;20539;-67
2022/08/29 00:37:10;;;;;;;8.93;8.13;;;19.00;99.90;;;;;;6143041;23;20464;-68
2022/08/29 00:39:37;;;;;;;8.00;7.30;;;18.90;99.90;;;;;;6134036;23;20433;-68
2022/08/29 00:42:06;;;;;;;7.50;6.87;;;18.80;99.90;;;;;;6133701;23;20432;-68
2022/08/29 00:44:34;;;;;;;7.43;6.83;;;18.80;99.90;;;;;;6141907;23;20459;-68
2022/08/29 00:47:06;;;;;;;7.13;6.63;;;18.80;99.90;;;;;;6145886;23;20456;-68
2022/08/29 00:49:38;;;;;;;8.60;7.80;;;18.80;99.90;;;;;;6136612;23;20433;-68
2022/08/29 00:52:13;;;;;;;7.90;7.20;;;18.90;99.90;;;;;;6140558;23;20905;-67
2022/08/29 00:54:44;;;;;;;8.37;7.67;;;18.90;99.90;;;;;;6139010;23;20437;-67
2022/08/29 00:57:13;;;;;;;7.50;6.90;;;18.90;99.90;;;;;;6131974;23;20478;-68
2022/08/29 00:59:41;;;;;;;7.13;6.53;;;18.90;99.90;;;;;;6139220;23;20430;-69
2022/08/29 01:02:10;;;;;;;8.70;7.87;;;18.90;99.90;;;;;;6144415;23;20433;-68
2022/08/29 01:04:38;;;;;;;8.20;7.60;;;18.90;99.90;;;;;;6143273;23;20443;-68
2022/08/29 01:07:06;;;;;;;8.50;7.80;;;18.90;99.90;;;;;;6140458;23;20472;-69
2022/08/29 01:09:35;;;;;;;7.50;6.70;;;18.90;99.90;;;;;;6137343;23;20498;-68
2022/08/29 01:12:14;;;;;;;6.10;5.60;;;18.90;99.90;;;;;;6127048;23;20524;-68
2022/08/29 01:14:47;;;;;;;8.33;7.53;;;18.90;99.90;;;;;;6133474;23;20957;-68
2022/08/29 01:17:19;;;;;;;7.57;6.87;;;18.90;99.90;;;;;;6141313;23;20437;-68
2022/08/29 01:19:52;;;;;;;6.80;6.30;;;18.90;99.90;;;;;;6129907;23;20483;-68
2022/08/29 01:22:33;;;;;;;7.77;7.07;;;18.90;99.90;;;;;;6135142;23;21000;-68
2022/08/29 01:25:04;;;;;;;7.13;6.63;;;18.90;99.90;;;;;;6125432;23;20465;-69
2022/08/29 01:27:34;;;;;;;8.00;7.40;;;18.90;99.90;;;;;;6137576;23;20873;-68
2022/08/29 01:30:01;;;;;;;7.00;6.40;;;18.90;99.90;;;;;;6131131;23;20456;-68
2022/08/29 01:32:29;;;;;;;7.90;7.20;;;18.90;99.90;;;;;;6140996;23;20452;-68
2022/08/29 01:34:57;;;;;;;8.10;7.50;;;18.80;99.90;;;;;;6138119;23;20433;-68
2022/08/29 01:37:28;;;;;;;8.47;7.67;;;18.80;99.90;;;;;;6141932;23;20931;-68
2022/08/29 01:39:55;;;;;;;7.27;6.67;;;18.70;99.90;;;;;;6131998;23;20433;-68
2022/08/29 01:42:24;;;;;;;7.97;7.17;;;18.70;99.90;;;;;;6141435;23;20544;-68
2022/08/29 01:44:54;;;;;;;7.77;7.17;;;18.60;99.90;;;;;;6131306;23;20472;-68
2022/08/29 01:47:21;;;;;;;7.93;7.23;;;18.60;99.90;;;;;;6132332;23;20975;-68
2022/08/29 01:49:49;;;;;;;7.10;6.50;;;18.50;99.90;;;;;;6140976;23;20507;-69
2022/08/29 01:52:16;;;;;;;7.77;7.20;;;18.40;99.90;;;;;;6137255;23;20459;-68
2022/08/29 01:54:44;;;;;;;7.33;6.73;;;18.30;99.90;;;;;;6143362;23;20441;-68
2022/08/29 01:57:12;;;;;;;8.30;7.50;;;18.30;99.90;;;;;;6131377;23;21015;-69
2022/08/29 01:59:41;;;;;;;7.43;6.83;;;18.20;99.90;;;;;;6133591;23;20433;-68
2022/08/29 02:02:14;;;;;;;8.10;7.30;;;18.10;99.90;;;;;;6138666;23;20452;-68
2022/08/29 02:04:41;;;;;;;7.87;7.27;;;18.10;99.90;;;;;;6139422;23;20532;-68
2022/08/29 02:07:08;;;;;;;7.70;7.07;;;18.10;99.90;;;;;;6135790;23;20556;-68
2022/08/29 02:09:36;;;;;;;7.80;7.20;;;18.10;99.90;;;;;;6137028;23;20441;-68
2022/08/29 02:12:05;;;;;;;7.50;6.70;;;18.10;99.90;;;;;;6143934;23;20445;-68
2022/08/29 02:14:33;;;;;;;7.37;6.77;;;18.10;99.90;;;;;;6135464;23;20437;-68
2022/08/29 02:17:02;;;;;;;8.00;7.17;;;18.10;99.90;;;;;;6127598;23;20441;-68
2022/08/29 02:19:29;;;;;;;7.60;6.90;;;18.00;99.90;;;;;;6133284;23;20456;-68
2022/08/29 02:21:56;;;;;;;7.90;7.20;;;18.00;99.90;;;;;;6135984;23;20486;-68
2022/08/29 02:24:23;;;;;;;6.67;6.17;;;18.00;99.90;;;;;;6135784;23;20933;-68
2022/08/29 02:26:51;;;;;;;8.73;7.10;;;17.90;99.90;;;;;;6135118;23;20492;-68
2022/08/29 02:29:18;;;;;;;8.53;7.70;;;17.90;99.90;;;;;;6140650;23;20516;-68
2022/08/29 02:31:45;;;;;;;7.77;7.17;;;17.90;99.90;;;;;;6141459;23;20490;-68
2022/08/29 02:34:14;;;;;;;7.80;7.20;;;17.80;99.90;;;;;;6138046;23;20989;-68
2022/08/29 02:36:41;;;;;;;7.17;6.50;;;17.80;99.90;;;;;;6130112;23;20850;-68
2022/08/29 02:39:08;;;;;;;7.90;7.30;;;17.80;99.90;;;;;;6143214;23;20440;-68
2022/08/29 02:41:36;;;;;;;7.00;6.40;;;17.80;99.90;;;;;;6135685;23;20437;-68
2022/08/29 02:44:03;;;;;;;7.90;7.17;;;17.80;99.90;;;;;;6143773;23;20480;-68
2022/08/29 02:46:31;;;;;;;7.90;7.10;;;17.80;99.90;;;;;;6126146;23;20437;-68
2022/08/29 02:48:58;;;;;;;7.03;6.27;;;17.80;99.90;;;;;;6130341;23;20468;-68
2022/08/29 02:51:29;;;;;;;6.80;6.20;;;17.80;99.90;;;;;;6123573;23;20477;-67
2022/08/29 02:53:56;;;;;;;6.63;6.03;;;17.80;99.90;;;;;;6140931;23;20483;-67
2022/08/29 02:56:23;;;;;;;7.07;6.37;;;17.80;99.90;;;;;;6128547;23;20480;-68
2022/08/29 02:58:50;;;;;;;6.30;5.80;;;17.90;99.90;;;;;;6137335;23;20437;-67
2022/08/29 03:01:19;;;;;;;7.63;5.87;;;17.90;99.90;;;;;;6139174;23;20958;-68
2022/08/29 03:03:46;;;;;;;6.43;5.83;;;17.90;99.90;;;;;;6144006;23;20947;-67
2022/08/29 03:06:13;;;;;;;7.07;6.47;;;17.90;99.90;;;;;;6138484;23;20509;-67
2022/08/29 03:08:42;;;;;;;6.60;6.00;;;17.90;99.90;;;;;;6134287;23;20496;-67
2022/08/29 03:11:10;;;;;;;8.00;6.00;;;17.90;99.90;;;;;;6137503;23;20468;-68
2022/08/29 03:13:37;;;;;;;6.10;5.60;;;17.90;99.90;;;;;;6126725;23;20528;-68
2022/08/29 03:16:04;;;;;;;8.60;6.20;;;18.00;99.90;;;;;;6135739;23;20440;-67
2022/08/29 03:18:32;;;;;;;6.20;5.60;;;18.00;99.90;;;;;;6140789;23;20445;-68
2022/08/29 03:20:59;;;;;;;6.83;6.17;;;18.00;99.90;;;;;;6139175;23;20437;-68
2022/08/29 03:23:26;;;;;;;9.57;6.13;;;18.00;99.90;;;;;;6145606;23;20460;-67
2022/08/29 03:25:55;;;;;;;6.57;6.07;;;18.00;99.90;;;;;;6137494;23;20437;-68
2022/08/29 03:28:22;;;;;;;6.53;6.00;;;17.90;99.90;;;;;;6143135;23;20541;-67
2022/08/29 03:30:50;;;;;;;6.67;5.63;;;17.90;99.90;;;;;;6135354;23;20440;-67
2022/08/29 03:33:17;;;;;;;5.83;5.23;;;17.90;99.90;;;;;;6133799;23;20457;-68
2022/08/29 03:35:44;;;;;;;6.10;5.50;;;17.90;99.90;;;;;;6143574;23;20950;-68
2022/08/29 03:38:11;;;;;;;6.40;5.50;;;17.90;99.90;;;;;;6134925;23;20490;-67
2022/08/29 03:40:41;;;;;;;6.63;6.03;;;17.90;99.90;;;;;;6136689;23;20447;-68
2022/08/29 03:43:09;;;;;;;6.20;5.70;;;17.90;99.90;;;;;;6133363;23;20519;-68
2022/08/29 03:45:36;;;;;;;6.23;5.63;;;18.10;99.90;;;;;;6141467;23;20480;-67
2022/08/29 03:48:05;;;;;;;7.00;5.60;;;17.90;99.90;;;;;;6136911;23;20460;-67
2022/08/29 03:50:32;;;;;;;6.67;6.07;;;17.80;99.90;;;;;;6127333;23;20920;-67
2022/08/29 03:53:00;;;;;;;6.50;5.50;;;17.80;99.90;;;;;;6135816;23;20638;-68
2022/08/29 03:55:27;;;;;;;7.40;6.00;;;17.80;99.90;;;;;;6143368;23;20441;-67
2022/08/29 03:57:55;;;;;;;6.63;5.97;;;17.70;99.90;;;;;;6141341;23;20444;-67
2022/08/29 04:00:24;;;;;;;6.70;5.67;;;17.70;99.90;;;;;;6129518;23;20448;-68
2022/08/29 04:02:52;;;;;;;6.80;6.10;;;17.60;99.90;;;;;;6142244;23;20459;-67
2022/08/29 04:05:20;;;;;;;6.53;5.93;;;17.60;99.90;;;;;;6131695;23;20474;-67
2022/08/29 04:07:50;;;;;;;7.20;6.50;;;17.60;99.90;;;;;;6137158;23;20476;-68
2022/08/29 04:10:20;;;;;;;6.50;5.90;;;17.50;99.90;;;;;;6128639;23;20461;-68
2022/08/29 04:12:48;;;;;;;7.10;6.50;;;17.50;99.90;;;;;;6144594;23;20456;-67
2022/08/29 04:15:16;;;;;;;6.17;5.67;;;17.30;99.90;;;;;;6130814;23;20433;-67
2022/08/29 04:17:45;;;;;;;6.70;6.03;;;17.20;99.90;;;;;;6134337;23;20438;-67
2022/08/29 04:20:14;;;;;;;7.10;6.50;;;17.10;99.90;;;;;;6122991;23;20513;-68
2022/08/29 04:22:42;;;;;;;6.87;6.27;;;17.10;99.90;;;;;;6131339;23;20591;-67
2022/08/29 04:25:11;;;;;;;6.73;6.03;;;17.00;99.90;;;;;;6129185;23;20441;-68
2022/08/29 04:27:39;;;;;;;7.70;5.83;;;16.90;99.90;;;;;;6143325;23;20466;-68
2022/08/29 04:30:10;;;;;;;6.17;5.60;;;17.00;99.90;;;;;;6131101;23;20429;-68
2022/08/29 04:32:37;;;;;;;6.10;5.60;;;16.90;99.90;;;;;;6134972;23;20485;-67
2022/08/29 04:35:07;;;;;;;6.83;5.00;;;17.00;99.90;;;;;;6136331;23;20432;-67
2022/08/29 04:37:34;;;;;;;5.90;5.40;;;17.00;99.90;;;;;;6137780;23;20521;-67
2022/08/29 04:40:02;;;;;;;6.33;5.70;;;17.00;99.90;;;;;;6136192;23;20460;-67
2022/08/29 04:42:30;;;;;;;6.30;5.70;;;17.00;99.90;;;;;;6136893;23;20453;-67
2022/08/29 04:44:57;;;;;;;8.57;5.87;;;17.00;99.90;;;;;;6139796;23;21721;-67
2022/08/29 04:47:25;;;;;;;6.33;5.83;;;17.00;99.90;;;;;;6125683;23;20461;-67
2022/08/29 04:49:55;;;;;;;6.20;5.33;;;17.00;99.90;;;;;;6145894;23;20433;-67
2022/08/29 04:52:23;;;;;;;5.73;5.10;;;17.00;99.90;;;;;;6124693;23;20486;-68
2022/08/29 04:54:51;;;;;;;5.80;5.20;;;17.00;99.90;;;;;;6125395;23;20525;-68
2022/08/29 04:57:18;;;;;;;6.97;6.30;;;17.00;99.90;;;;;;6124080;23;20505;-68
2022/08/29 04:59:46;;;;;;;6.20;5.60;;;16.90;99.90;;;;;;6125257;23;20429;-68
2022/08/29 05:02:13;;;;;;;8.30;5.57;;;16.90;99.90;;;;;;6128717;23;20452;-74
2022/08/29 05:04:40;;;;;;;6.10;5.40;;;16.80;99.90;;;;;;6136006;23;20471;-67
2022/08/29 05:07:07;;;;;;;6.13;5.63;;;16.90;99.90;;;;;;6131985;23;20439;-67
2022/08/29 05:09:36;;;;;;;5.90;5.30;;;16.90;99.90;;;;;;6123174;23;20466;-68
2022/08/29 05:12:04;;;;;;;5.90;5.37;;;16.90;99.90;;;;;;6113827;23;20548;-69
2022/08/29 05:14:31;;;;;;;6.93;5.43;;;16.90;99.90;;;;;;6127605;23;20780;-68
2022/08/29 05:16:58;;;;;;;5.47;5.07;;;17.10;99.90;;;;;;6135661;23;20444;-68
2022/08/29 05:19:25;;;;;;;5.83;5.23;;;17.00;99.90;;;;;;6127451;23;20476;-68
2022/08/29 05:21:56;;;;;;;6.73;5.90;;;17.00;99.90;;;;;;6127702;23;20536;-68
2022/08/29 05:24:23;;;;;;;6.37;5.70;;;17.00;99.90;;;;;;6124911;23;20856;-68
2022/08/29 05:26:52;;;;;;;5.80;5.20;;;17.00;99.90;;;;;;6127754;23;20440;-68
2022/08/29 05:29:20;;;;;;;6.90;5.93;;;17.00;99.90;;;;;;6120566;23;20470;-68
2022/08/29 05:31:48;;;;;;;7.57;5.87;;;17.00;99.90;;;;;;6128292;23;20484;-71
2022/08/29 05:34:15;;;;;;;6.67;5.97;;;17.00;99.90;;;;;;6130963;23;20857;-69
2022/08/29 05:36:42;;;;;;;7.10;6.27;;;16.90;99.90;;;;;;6134790;23;20527;-67
2022/08/29 05:39:10;;;;;;;8.40;7.57;;;16.90;99.90;;;;;;6126516;23;20474;-69
2022/08/29 05:41:38;;;;;;;7.80;7.00;;;16.70;99.90;;;;;;6141260;23;20457;-69
2022/08/29 05:44:06;;;;;;;6.63;6.03;;;16.60;99.90;;;;;;6146480;23;20822;-68
2022/08/29 05:46:33;;;;;;;6.53;6.03;;;16.50;99.90;;;;;;6140528;23;20440;-68
2022/08/29 05:49:01;;;;;;;6.83;6.20;;;16.60;99.90;;;;;;6133932;23;20816;-69
2022/08/29 05:51:28;;;;;;;7.40;6.70;;;16.60;99.90;;;;;;6111681;23;20850;-68
2022/08/29 05:53:55;;;;;;;6.57;6.00;;;16.70;99.90;;;;;;6105475;23;20465;-68
2022/08/29 05:56:24;;;;;;;8.33;6.20;;;16.80;99.90;;;;;;6108754;23;20534;-69
2022/08/29 05:58:51;;;;;;;7.10;6.57;;;16.90;99.90;;;;;;6110471;23;20433;-68
2022/08/29 06:01:25;;;;;;;8.00;7.30;;;17.00;99.90;;;;;;6111156;23;20520;-68
2022/08/29 06:03:52;;;;;;;8.10;7.33;;;17.10;99.90;;;;;;6106501;23;20540;-69
2022/08/29 06:06:21;;;;;;;8.10;7.07;;;17.10;99.90;;;;;;6108004;23;20554;-68
2022/08/29 06:08:49;;;;;;;7.27;6.27;;;17.10;99.90;;;;;;6111310;23;20468;-68
2022/08/29 06:11:17;;;;;;;7.70;6.90;;;17.20;99.90;;;;;;6103532;23;21363;-68
2022/08/29 06:13:44;;;;;;;8.80;8.00;;;17.30;99.90;;;;;;6108092;23;21158;-68
2022/08/29 06:16:13;;;;;;;7.40;6.80;;;17.30;99.90;;;;;;6107826;23;20568;-68
2022/08/29 06:18:42;;;;;;;8.97;8.17;;;17.40;99.90;;;;;;6110643;23;20507;-68
2022/08/29 06:21:11;;;;;;;7.90;7.20;;;17.80;99.90;;;;;;6111145;23;20560;-68
2022/08/29 06:23:39;;;;;;;7.70;7.00;;;17.80;99.90;;;;;;6134184;23;20441;-68
2022/08/29 06:26:07;;;;;;;7.93;6.10;;;17.90;99.90;;;;;;6142755;23;20433;-69
2022/08/29 06:28:35;;;;;;;6.67;5.97;;;18.00;99.90;;;;;;6141648;23;20453;-69
2022/08/29 06:31:07;;;;;;;6.60;5.80;;;18.20;99.90;;;;;;6129439;23;20494;-68
2022/08/29 06:33:35;;;;;;;7.03;5.40;;;18.40;99.90;;;;;;6123981;23;20505;-69
2022/08/29 06:36:04;;;;;;;6.70;5.83;;;18.60;99.90;;;;;;6126080;23;20809;-68
2022/08/29 06:38:31;;;;;;;6.17;5.57;;;18.90;99.90;;;;;;6133118;23;20437;-68
2022/08/29 06:41:02;;;;;;;7.10;5.90;;;19.30;99.90;;;;;;6115567;23;20432;-68
2022/08/29 06:43:30;;;;;;;6.30;5.50;;;19.60;99.90;;;;;;6115973;23;20959;-68
2022/08/29 06:45:57;;;;;;;5.90;5.17;;;20.10;99.90;;;;;;6117562;23;20448;-68
2022/08/29 06:48:25;;;;;;;6.67;5.47;;;20.40;99.90;;;;;;6117276;23;20467;-68
2022/08/29 06:50:52;;;;;;;6.30;5.40;;;20.80;99.90;;;;;;6136277;23;20444;-68
2022/08/29 06:53:22;;;;;;;7.90;5.40;;;21.20;99.90;;;;;;6123220;23;20457;-68
2022/08/29 06:55:49;;;;;;;5.60;5.10;;;21.60;99.90;;;;;;6109033;23;20505;-68
2022/08/29 06:58:17;;;;;;;5.20;4.80;;;22.00;99.90;;;;;;6122519;23;21042;-68
2022/08/29 07:00:44;;;;;;;6.03;5.47;;;22.40;99.90;;;;;;6115971;23;20433;-68
2022/08/29 07:03:12;;;;;;;6.43;5.83;;;22.90;99.90;;;;;;6108090;23;20458;-69
2022/08/29 07:05:39;;;;;;;5.80;4.50;;;23.40;99.90;;;;;;6113246;23;20442;-69
2022/08/29 07:08:08;;;;;;;7.03;5.07;;;23.80;99.90;;;;;;6114482;23;20443;-70
2022/08/29 07:10:37;;;;;;;5.77;5.20;;;24.30;99.90;;;;;;6113185;23;21054;-69
2022/08/29 07:13:04;;;;;;;5.10;4.60;;;24.70;99.90;;;;;;6100405;23;20454;-69
2022/08/29 07:15:31;;;;;;;5.60;4.87;;;25.00;99.90;;;;;;6123582;23;20424;-68
2022/08/29 07:17:58;;;;;;;5.10;4.33;;;25.30;99.90;;;;;;6120767;23;20849;-67
2022/08/29 07:20:25;;;;;;;4.73;4.30;;;25.40;99.90;;;;;;6116313;23;20663;-67
2022/08/29 07:22:54;;;;;;;5.10;4.60;;;25.70;99.90;;;;;;6134034;23;20511;-67
2022/08/29 07:25:22;;;;;;;5.53;5.03;;;26.00;99.90;;;;;;6113730;23;20433;-68
2022/08/29 07:27:51;;;;;;;6.20;5.63;;;26.20;99.90;;;;;;6113338;23;20434;-68
2022/08/29 07:30:19;;;;;;;5.27;4.73;;;26.30;99.90;;;;;;6114371;23;20500;-69
2022/08/29 07:32:47;;;;;;;5.63;5.13;;;26.50;99.90;;;;;;6120620;23;20474;-76
2022/08/29 07:35:15;;;;;;;6.43;5.63;;;26.60;99.90;;;;;;6122043;23;20544;-69
2022/08/29 07:37:42;;;;;;;4.70;4.27;;;26.50;99.90;;;;;;6119771;23;20522;-68
2022/08/29 07:40:11;;;;;;;5.17;4.77;;;26.50;99.90;;;;;;6113180;23;20516;-68
2022/08/29 07:42:39;;;;;;;5.60;5.07;;;26.80;99.90;;;;;;6115119;23;20463;-68
2022/08/29 07:45:10;;;;;;;7.03;5.30;;;27.10;99.40;;;;;;6121771;23;20525;-69
2022/08/29 07:47:38;;;;;;;5.30;4.80;;;27.50;98.40;;;;;;6130874;23;20465;-69
2022/08/29 07:50:08;;;;;;;5.40;4.30;;;27.70;97.60;;;;;;6112166;23;20457;-69
2022/08/29 07:52:36;;;;;;;5.00;4.50;;;27.90;97.20;;;;;;6113119;23;20499;-69
2022/08/29 07:55:05;;;;;;;5.13;4.60;;;28.00;96.40;;;;;;6116210;23;20536;-69
2022/08/29 07:57:32;;;;;;;4.10;3.70;;;28.10;95.90;;;;;;6121540;23;20440;-69
2022/08/29 08:00:00;;;;;;;4.23;3.87;;;28.20;95.90;;;;;;6117863;23;20823;-69
2022/08/29 08:02:29;;;;;;;4.77;4.27;;;28.50;95.50;;;;;;6120539;23;20485;-69
2022/08/29 08:04:56;;;;;;;4.53;4.13;;;28.90;95.10;;;;;;6114737;23;20954;-68
2022/08/29 08:07:23;;;;;;;4.73;4.33;;;29.20;94.30;;;;;;6129351;23;21241;-69
2022/08/29 08:09:51;;;;;;;6.00;4.60;;;29.50;93.30;;;;;;6114888;23;20466;-68
2022/08/29 08:12:17;;;;;;;5.40;4.50;;;29.40;92.90;;;;;;6109616;23;20468;-69
2022/08/29 08:14:45;;;;;;;5.47;4.90;;;29.50;92.60;;;;;;6113804;23;20438;-69
2022/08/29 08:17:12;;;;;;;4.80;4.40;;;29.50;91.80;;;;;;6122148;23;20764;-68
2022/08/29 08:19:40;;;;;;;5.60;4.63;;;29.50;91.70;;;;;;6115303;23;20510;-69
2022/08/29 08:22:08;;;;;;;5.13;4.13;;;29.40;92.20;;;;;;6121218;23;20482;-68
2022/08/29 08:24:35;;;;;;;4.93;4.43;;;29.40;92.20;;;;;;6133532;23;20525;-69
2022/08/29 08:27:02;;;;;;;5.97;5.30;;;29.60;92.10;;;;;;6109046;23;20467;-69
2022/08/29 08:29:29;;;;;;;4.70;4.27;;;29.90;90.90;;;;;;6113084;23;20624;-69
2022/08/29 08:31:58;;;;;;;4.70;4.30;;;29.70;91.20;;;;;;6123054;23;20462;-69
2022/08/29 08:34:28;;;;;;;5.73;4.77;;;29.80;90.90;;;;;;6121839;23;20505;-69
2022/08/29 08:36:56;;;;;;;7.20;4.87;;;29.80;90.90;;;;;;6121406;23;20440;-69
2022/08/29 08:39:23;;;;;;;6.27;5.27;;;30.00;90.80;;;;;;6128051;23;20495;-69
2022/08/29 08:41:56;;;;;;;5.67;4.90;;;30.00;90.60;;;;;;6127954;23;20568;-69
2022/08/29 08:45:00;;;;;;;6.57;5.23;;;30.00;90.40;;;;;;6136696;23;20439;-69
2022/08/29 08:47:30;;;;;;;5.43;4.93;;;30.00;90.40;;;;;;6124270;23;20467;-69
2022/08/29 08:50:03;;;;;;;5.33;4.67;;;30.20;90.40;;;;;;6127291;23;20460;-69
2022/08/29 08:52:41;;;;;;;4.63;4.23;;;30.40;90.10;;;;;;6131745;23;20461;-69
2022/08/29 08:55:14;;;;;;;4.90;4.40;;;30.70;89.60;;;;;;6110819;23;20469;-69
2022/08/29 08:57:49;;;;;;;5.77;5.13;;;30.80;89.80;;;;;;6123195;23;20430;-68
2022/08/29 09:00:17;;;;;;;4.87;4.47;;;31.10;88.60;;;;;;6135657;23;20436;-69
2022/08/29 09:03:00;;;;;;;5.60;5.10;;;31.20;87.90;;;;;;6122664;23;20537;-70
2022/08/29 09:05:36;;;;;;;6.63;5.70;;;31.30;87.80;;;;;;6132043;23;20545;-76
2022/08/29 09:08:16;;;;;;;6.00;5.40;;;31.50;86.80;;;;;;6134130;23;20522;-69
2022/08/29 09:10:49;;;;;;;5.63;4.53;;;31.50;86.60;;;;;;6119819;23;20900;-68
2022/08/29 09:13:26;;;;;;;5.70;4.63;;;31.50;87.00;;;;;;6143284;23;20475;-69
2022/08/29 09:15:57;;;;;;;5.03;4.53;;;31.70;86.70;;;;;;6119754;23;21093;-70
2022/08/29 09:18:30;;;;;;;7.03;5.83;;;31.90;85.80;;;;;;6108090;23;20933;-69
2022/08/29 09:20:58;;;;;;;5.93;5.43;;;32.00;84.50;;;;;;6101903;23;20847;-69
2022/08/29 09:23:30;;;;;;;6.53;5.00;;;32.10;83.20;;;;;;6099938;23;20433;-69
2022/08/29 09:25:57;;;;;;;5.33;4.80;;;31.80;84.90;;;;;;6103220;23;20442;-69
2022/08/29 09:28:25;;;;;;;5.37;4.87;;;31.90;84.90;;;;;;6105433;23;20860;-69
2022/08/29 09:31:21;;;;;;;5.07;4.67;;;32.00;84.20;;;;;;6101480;23;20484;-69
2022/08/29 09:33:51;;;;;;;4.80;4.40;;;32.10;83.50;;;;;;6101853;23;20481;-69
2022/08/29 09:36:44;;;;;;;5.40;4.90;;;32.40;83.10;;;;;;6103700;23;21480;-69
2022/08/29 09:39:16;;;;;;;5.10;4.70;;;32.70;82.40;;;;;;6104114;23;20519;-70
2022/08/29 09:41:45;;;;;;;5.93;5.10;;;32.60;81.90;;;;;;6097659;23;20485;-69
2022/08/29 09:44:18;;;;;;;5.43;4.93;;;32.60;81.20;;;;;;6106750;23;20445;-69
2022/08/29 09:46:45;;;;;;;5.27;4.77;;;32.50;80.70;;;;;;6103695;23;20437;-69
2022/08/29 09:49:15;;;;;;;5.10;4.60;;;32.60;81.60;;;;;;6114407;23;20445;-69
2022/08/29 09:51:44;;;;;;;4.67;4.27;;;32.80;81.50;;;;;;6138360;23;20467;-69
2022/08/29 09:54:17;;;;;;;5.17;4.77;;;32.90;80.90;;;;;;6127403;23;20437;-69
2022/08/29 09:56:51;;;;;;;6.77;6.17;;;33.00;79.90;;;;;;6133610;23;20855;-69
2022/08/29 09:59:24;;;;;;;5.63;5.13;;;33.00;78.40;;;;;;6131705;23;20446;-69
2022/08/29 10:02:18;;;;;;;4.90;4.50;;;32.80;79.20;;;;;;6142022;23;20589;-69
2022/08/29 10:04:47;;;;;;;5.37;4.70;;;32.70;79.70;;;;;;6128347;23;20530;-69
2022/08/29 10:07:17;;;;;;;5.33;4.83;;;32.80;80.30;;;;;;6140546;23;20837;-69
2022/08/29 10:09:56;;;;;;;5.10;4.60;;;32.80;79.60;;;;;;6142204;23;20547;-69
2022/08/29 10:12:33;;;;;;;3.90;3.60;;;32.80;79.00;;;;;;6136843;23;20461;-74
2022/08/29 10:15:04;;;;;;;4.50;4.10;;;32.90;79.50;;;;;;6136806;23;20805;-69
2022/08/29 10:20:27;;;;;;;5.77;5.27;;;32.80;78.80;;;;;;6148300;23;20421;-69
2022/08/29 10:23:02;;;;;;;4.30;3.90;;;32.90;76.60;;;;;;6142368;23;20479;-69
2022/08/29 10:25:35;;;;;;;5.50;4.67;;;32.90;77.60;;;;;;6136500;23;20443;-69
2022/08/29 10:28:10;;;;;;;4.20;3.80;;;33.00;77.30;;;;;;6128480;23;20437;-69
2022/08/29 10:30:44;;;;;;;4.90;4.50;;;32.90;77.20;;;;;;6144566;23;20869;-69
2022/08/29 10:33:25;;;;;;;5.93;4.47;;;33.00;76.80;;;;;;6132020;23;20434;-69
2022/08/29 10:35:58;;;;;;;4.60;4.20;;;32.90;76.30;;;;;;6136811;23;20988;-69
2022/08/29 10:38:45;;;;;;;5.10;4.70;;;32.70;76.90;;;;;;6132997;23;20433;-69
2022/08/29 10:41:24;;;;;;;5.27;4.77;;;32.70;76.60;;;;;;6140660;23;20904;-69
2022/08/29 10:44:01;;;;;;;4.47;3.93;;;32.80;76.90;;;;;;6130928;23;20845;-69
2022/08/29 10:46:56;;;;;;;4.80;4.40;;;33.10;76.00;;;;;;6142862;23;20428;-69
2022/08/29 10:49:35;;;;;;;4.17;3.83;;;33.00;74.80;;;;;;6128558;23;20437;-69
2022/08/29 10:52:10;;;;;;;4.90;4.40;;;33.00;75.30;;;;;;6139062;23;20456;-69
2022/08/29 10:54:50;;;;;;;4.50;4.03;;;32.80;74.00;;;;;;6141948;23;20452;-69
2022/08/29 10:57:40;;;;;;;5.23;4.73;;;32.80;75.30;;;;;;6133399;23;20433;-69
2022/08/29 11:00:10;;;;;;;4.00;3.70;;;32.90;74.80;;;;;;6139059;23;20437;-69
2022/08/29 11:02:45;;;;;;;4.57;4.17;;;32.90;75.50;;;;;;6138436;23;20471;-69
2022/08/29 11:05:18;;;;;;;3.90;3.60;;;33.10;75.10;;;;;;6125219;23;21105;-69
2022/08/29 11:07:51;;;;;;;3.90;3.60;;;33.20;74.40;;;;;;6123657;23;20434;-70
2022/08/29 11:10:24;;;;;;;4.10;3.70;;;33.20;73.30;;;;;;6122933;23;20487;-69
2022/08/29 11:12:57;;;;;;;4.47;4.07;;;33.20;72.50;;;;;;6122274;23;20468;-69
2022/08/29 11:15:27;;;;;;;4.13;3.40;;;33.20;72.40;;;;;;6131511;23;20437;-69
2022/08/29 11:18:01;;;;;;;4.73;4.30;;;33.00;71.50;;;;;;6124832;23;20523;-69
2022/08/29 11:20:34;;;;;;;4.40;3.97;;;33.10;73.00;;;;;;6126723;23;20458;-69
2022/08/29 11:23:05;;;;;;;3.80;3.50;;;33.10;72.30;;;;;;6125900;23;20429;-69
2022/08/29 11:25:33;;;;;;;3.60;3.30;;;33.10;72.90;;;;;;6127706;23;20437;-69
2022/08/29 11:28:13;;;;;;;3.93;3.30;;;33.00;72.80;;;;;;6126425;23;20512;-69
2022/08/29 11:30:46;;;;;;;4.00;3.70;;;32.80;73.40;;;;;;6127947;23;20845;-68
2022/08/29 11:33:24;;;;;;;4.17;3.87;;;32.60;71.70;;;;;;6125867;23;20433;-69
2022/08/29 11:36:11;;;;;;;4.57;3.33;;;32.50;71.20;;;;;;6119864;23;20502;-69
2022/08/29 11:39:00;;;;;;;4.43;4.03;;;32.50;73.10;;;;;;6123469;23;20438;-69
2022/08/29 11:41:28;;;;;;;4.57;4.10;;;32.50;72.50;;;;;;6119577;23;20461;-69
2022/08/29 11:44:07;;;;;;;4.13;3.40;;;32.60;72.70;;;;;;6114041;23;20490;-69
2022/08/29 11:46:40;;;;;;;5.00;4.13;;;32.90;72.60;;;;;;6131115;23;20437;-69
2022/08/29 11:49:37;;;;;;;4.17;3.77;;;33.00;71.60;;;;;;6123543;23;20856;-69
2022/08/29 11:52:22;;;;;;;5.23;4.73;;;33.20;70.90;;;;;;6129928;23;20536;-69
2022/08/29 11:55:09;;;;;;;4.40;4.00;;;33.20;68.20;;;;;;6122152;23;20440;-69
2022/08/29 11:57:53;;;;;;;4.60;3.90;;;32.80;68.70;;;;;;6100193;23;20429;-69
2022/08/29 12:00:42;;;;;;;4.70;4.40;;;32.60;70.00;;;;;;6118611;23;20485;-69
2022/08/29 12:03:53;;;;;;;3.60;3.30;;;32.50;69.90;;;;;;6122087;23;20564;-69
2022/08/29 12:06:57;;;;;;;4.73;4.20;;;32.40;71.40;;;;;;6118882;23;20938;-69
2022/08/29 12:09:44;;;;;;;5.10;4.17;;;32.20;70.90;;;;;;6130955;23;20503;-71
2022/08/29 12:12:29;;;;;;;4.20;3.80;;;32.20;70.00;;;;;;6133943;23;20535;-69
2022/08/29 12:14:56;;;;;;;4.43;4.03;;;32.30;70.20;;;;;;6134914;23;20433;-69
2022/08/29 12:17:46;;;;;;;4.20;3.40;;;32.60;70.00;;;;;;6120163;23;21528;-70
2022/08/29 12:20:34;;;;;;;4.30;4.00;;;32.90;69.60;;;;;;6115285;23;20548;-69
2022/08/29 12:23:04;;;;;;;4.03;3.70;;;33.30;69.10;;;;;;6119956;23;21926;-69
2022/08/29 12:25:49;;;;;;;4.00;3.60;;;33.40;69.50;;;;;;6125317;23;20493;-69
2022/08/29 12:28:40;;;;;;;4.50;4.17;;;33.40;67.90;;;;;;6121421;23;20915;-68
2022/08/29 12:31:29;;;;;;;4.43;4.03;;;33.30;67.50;;;;;;6129895;23;20555;-69
2022/08/29 12:34:25;;;;;;;3.67;3.47;;;33.00;68.60;;;;;;6134216;23;20432;-69
2022/08/29 12:37:23;;;;;;;4.17;3.83;;;32.90;69.10;;;;;;6132342;23;20444;-68
2022/08/29 12:40:08;;;;;;;3.90;3.60;;;32.50;67.80;;;;;;6133374;23;20797;-71
2022/08/29 12:42:43;;;;;;;4.40;4.10;;;32.10;69.20;;;;;;6128499;23;20787;-71
2022/08/29 12:45:13;;;;;;;4.30;4.00;;;31.70;69.70;;;;;;6122310;23;20425;-68
2022/08/29 12:47:45;;;;;;;4.60;4.20;;;31.60;69.50;;;;;;6125579;23;20434;-68
2022/08/29 12:50:19;;;;;;;4.30;3.93;;;31.70;70.00;;;;;;6131703;23;21060;-68
2022/08/29 12:53:00;;;;;;;3.93;3.60;;;32.00;68.80;;;;;;6121615;23;20433;-69
2022/08/29 12:55:38;;;;;;;4.27;3.87;;;32.30;68.50;;;;;;6135535;23;20972;-70
2022/08/29 12:58:06;;;;;;;4.00;3.70;;;32.40;64.50;;;;;;6127029;23;20436;-68
2022/08/29 13:00:34;;;;;;;3.97;3.67;;;32.60;67.80;;;;;;6123230;23;20480;-68
2022/08/29 13:03:05;;;;;;;4.13;3.70;;;32.60;67.60;;;;;;6129589;23;20433;-68
2022/08/29 13:05:35;;;;;;;4.40;4.00;;;32.70;67.70;;;;;;6130999;23;20512;-68
2022/08/29 13:08:06;;;;;;;4.33;3.93;;;32.80;66.70;;;;;;6125625;23;20452;-68
2022/08/29 13:10:34;;;;;;;4.90;3.97;;;33.00;66.40;;;;;;6122709;23;20463;-68